Time;durP1;ratioP1;P1;durP2;ratioP2;P2;SDS_P1;SDS_P2;PMS_P1;PMS_P2;Temp;Humidity;BMP_temperature;BMP_pressure;BME280_temperature;BME280_humidity;BME280_pressure;Samples;Min_cycle;Max_cycle;Signal;HPM_P1;HPM_P2
2022/03/12 07:18:07;;;;;;;18.30;7.10;;;;;18.24;98859.60;;;;107543;1286;544078;-62
2022/03/12 07:21:03;;;;;;;16.10;6.60;;;;;16.80;98860.40;;;;109681;1262;41276;-67
2022/03/12 07:24:08;;;;;;;14.60;7.30;;;;;14.64;98862.00;;;;109654;1263;41666;-65
2022/03/12 07:26:57;;;;;;;;;;;;;12.30;98868.00;;;;109817;1262;40754;-65
2022/03/12 07:29:33;;;;;;;;;;;;;10.22;98880.20;;;;109788;1263;41352;-66
2022/03/12 07:32:08;;;;;;;16.10;8.00;;;;;8.82;98880.20;;;;107105;1261;3777102;-66
2022/03/12 07:34:54;;;;;;;17.40;8.10;;;;;7.70;98893.80;;;;110023;1258;42200;-66
2022/03/12 07:37:35;;;;;;;18.00;8.20;;;;;6.94;98900.00;;;;109812;1263;41439;-66
2022/03/12 07:40:20;;;;;;;18.10;8.30;;;;;6.20;98901.60;;;;110030;1261;42438;-66
2022/03/12 07:43:09;;;;;;;17.40;8.40;;;;;5.80;98909.00;;;;110006;1261;41268;-65
2022/03/12 07:45:46;;;;;;;17.10;7.60;;;;;5.50;98910.80;;;;110047;1259;41181;-66
2022/03/12 07:48:21;;;;;;;18.20;6.90;;;;;5.20;98910.20;;;;110072;1261;41545;-65
2022/03/12 07:51:16;;;;;;;14.30;6.80;;;;;4.90;98904.80;;;;110330;1258;41269;-65
2022/03/12 07:53:52;;;;;;;17.70;7.40;;;;;4.70;98915.00;;;;110266;1257;41994;-64
2022/03/12 07:56:35;;;;;;;19.70;8.20;;;;;4.66;98907.80;;;;110087;1257;41264;-65
2022/03/12 07:59:22;;;;;;;18.00;9.20;;;;;4.46;98909.00;;;;110270;1259;41136;-65
2022/03/12 08:02:02;;;;;;;13.20;5.80;;;;;4.20;98908.40;;;;110358;1257;41838;-65
2022/03/12 08:04:56;;;;;;;;;;;;;;;;;;;;;
2022/03/12 08:07:33;;;;;;;9.80;4.50;;;;;3.72;98909.80;;;;110192;1257;41249;-65
2022/03/12 08:10:15;;;;;;;11.40;5.70;;;;;3.44;98916.00;;;;110573;1253;41272;-63
2022/03/12 08:12:59;;;;;;;13.00;5.60;;;;;2.98;98919.80;;;;110446;1254;42025;-65
2022/03/12 08:15:41;;;;;;;10.80;4.90;;;;;3.10;98914.80;;;;110542;1254;42132;-63
2022/03/12 08:18:21;;;;;;;16.00;4.90;;;;;3.66;98908.20;;;;110729;1254;41606;-62
2022/03/12 08:21:07;;;;;;;12.40;5.30;;;;;4.26;98903.60;;;;110498;1254;42899;-65
2022/03/12 08:23:46;;;;;;;12.00;5.20;;;;;5.54;98899.40;;;;110628;1254;41174;-64
2022/03/12 08:26:26;;;;;;;12.30;5.10;;;;;6.86;98883.80;;;;110387;1255;41143;-64
2022/03/12 08:29:11;;;;;;;14.80;6.40;;;;;9.12;98857.40;;;;110629;1253;41162;-62
2022/03/12 08:31:50;;;;;;;11.10;5.10;;;;;10.78;98852.20;;;;110627;1254;41778;-65
2022/03/12 08:34:32;;;;;;;14.60;5.70;;;;;11.88;98849.00;;;;110420;1254;41431;-65
2022/03/12 08:37:09;;;;;;;15.50;6.90;;;;;12.92;98844.60;;;;110584;1254;42073;-66
2022/03/12 08:39:58;;;;;;;14.20;7.00;;;;;13.32;98841.80;;;;110516;1254;41185;-66
2022/03/12 08:42:38;;;;;;;12.40;5.80;;;;;12.96;98840.40;;;;110487;1254;41265;-63
2022/03/12 08:45:14;;;;;;;14.10;6.30;;;;;14.02;98830.80;;;;110487;1254;41856;-65
2022/03/12 08:47:58;;;;;;;14.10;6.60;;;;;15.56;98826.40;;;;110516;1254;41158;-65
2022/03/12 08:50:45;;;;;;;13.80;6.20;;;;;14.92;98826.00;;;;110534;1254;41737;-65
2022/03/12 08:53:20;;;;;;;14.30;7.40;;;;;14.60;98827.80;;;;110518;1254;41172;-66
2022/03/12 08:56:08;;;;;;;11.40;5.10;;;;;14.80;98829.20;;;;110511;1254;41163;-64
2022/03/12 08:58:57;;;;;;;12.90;4.80;;;;;15.78;98829.40;;;;110340;1254;41147;-63
2022/03/12 09:01:40;;;;;;;13.60;5.90;;;;;17.58;98826.00;;;;110554;1254;41252;-64
2022/03/12 09:04:19;;;;;;;13.50;5.60;;;;;18.86;98818.40;;;;110531;1254;41172;-63
2022/03/12 09:07:07;;;;;;;11.80;5.10;;;;;20.12;98814.20;;;;110613;1254;41216;-64
2022/03/12 09:09:47;;;;;;;11.50;4.80;;;;;20.36;98816.80;;;;110554;1254;41191;-65
2022/03/12 09:12:35;;;;;;;14.90;6.90;;;;;21.50;98805.60;;;;110544;1254;41290;-65
2022/03/12 09:15:24;;;;;;;12.40;5.60;;;;;21.30;98808.20;;;;110476;1255;41128;-63
2022/03/12 09:18:09;;;;;;;12.50;5.70;;;;;20.02;98808.40;;;;110502;1254;41283;-65
2022/03/12 09:20:49;;;;;;;;;;;;;19.38;98808.00;;;;110436;1254;41818;-66
2022/03/12 09:23:24;;;;;;;8.70;3.80;;;;;20.46;98802.20;;;;110547;1254;41843;-67
2022/03/12 09:26:01;;;;;;;10.00;4.10;;;;;21.70;98800.60;;;;110425;1253;41412;-66
2022/03/12 09:28:41;;;;;;;7.90;3.60;;;;;22.62;98800.40;;;;110491;1254;41254;-66
2022/03/12 09:31:18;;;;;;;9.10;3.70;;;;;23.12;98793.40;;;;110550;1253;41711;-69
2022/03/12 09:33:56;;;;;;;8.50;3.30;;;;;21.50;98795.40;;;;110548;1254;42379;-66
2022/03/12 09:36:44;;;;;;;12.80;3.80;;;;;19.94;98798.40;;;;110629;1253;41211;-63
2022/03/12 09:39:27;;;;;;;10.80;3.20;;;;;18.52;98800.60;;;;110602;1254;42532;-64
2022/03/12 09:42:19;;;;;;;8.20;3.30;;;;;18.42;98800.20;;;;110597;1254;41273;-69
2022/03/12 09:44:56;;;;;;;8.30;3.60;;;;;19.66;98787.40;;;;110721;1254;41251;-69
2022/03/12 09:47:44;;;;;;;7.90;3.40;;;;;19.10;98793.80;;;;110793;1254;42721;-68
2022/03/12 09:50:22;;;;;;;10.00;3.40;;;;;19.58;98783.80;;;;110772;1254;40775;-68
2022/03/12 09:53:05;;;;;;;;;;;;;20.52;98782.80;;;;110545;1254;41665;-68
2022/03/12 09:55:45;;;;;;;6.70;2.70;;;;;22.28;98775.80;;;;110576;1253;41157;-67
2022/03/12 09:58:26;;;;;;;9.20;3.30;;;;;23.42;98775.20;;;;110540;1253;41162;-67
2022/03/12 10:01:02;;;;;;;7.80;2.90;;;;;24.40;98766.00;;;;110541;1253;41983;-67
2022/03/12 10:03:41;;;;;;;7.80;2.50;;;;;25.46;98766.00;;;;110772;1254;41619;-67
2022/03/12 10:06:25;;;;;;;7.70;3.10;;;;;26.46;98763.00;;;;110562;1254;41889;-66
2022/03/12 10:09:04;;;;;;;8.30;3.50;;;;;27.12;98756.00;;;;110444;1254;42444;-68
2022/03/12 10:11:44;;;;;;;6.80;2.90;;;;;27.80;98753.00;;;;110742;1249;41163;-66
2022/03/12 10:14:25;;;;;;;6.30;2.60;;;;;28.06;98766.80;;;;110820;1248;41328;-67
2022/03/12 10:17:04;;;;;;;8.20;2.60;;;;;28.50;98748.40;;;;110880;1250;41628;-66
2022/03/12 10:19:47;;;;;;;6.70;2.70;;;;;26.14;98745.80;;;;110806;1248;42366;-66
2022/03/12 10:22:34;;;;;;;6.80;2.60;;;;;26.40;98743.60;;;;110734;1250;41979;-67
2022/03/12 10:25:13;;;;;;;6.60;2.40;;;;;27.32;98741.20;;;;111013;1248;41141;-66
2022/03/12 10:27:53;;;;;;;6.70;2.50;;;;;28.14;98736.80;;;;110961;1248;41163;-67
2022/03/12 10:30:29;;;;;;;7.30;2.90;;;;;29.28;98734.80;;;;110930;1248;41144;-68
2022/03/12 10:33:09;;;;;;;9.80;4.20;;;;;30.00;98722.20;;;;111041;1248;41601;-67
2022/03/12 10:35:50;;;;;;;8.30;3.70;;;;;30.20;98718.20;;;;110875;1249;42189;-66
2022/03/12 10:38:29;;;;;;;;;;;;;30.68;98719.80;;;;110817;1251;42126;-66
2022/03/12 10:41:08;;;;;;;6.30;2.70;;;;;31.28;98711.40;;;;110804;1250;42053;-66
2022/03/12 10:43:54;;;;;;;6.20;2.40;;;;;31.70;98712.00;;;;110927;1250;41160;-66
2022/03/12 10:46:39;;;;;;;6.90;2.50;;;;;32.20;98706.00;;;;110731;1250;41931;-66
2022/03/12 10:49:24;;;;;;;5.50;2.40;;;;;31.88;98699.40;;;;110956;1248;41336;-66
2022/03/12 10:52:05;;;;;;;6.10;2.50;;;;;32.10;98698.40;;;;110894;1249;41157;-66
2022/03/12 10:54:42;;;;;;;6.70;2.40;;;;;32.38;98694.00;;;;110609;1251;42338;-66
2022/03/12 10:57:34;;;;;;;7.30;2.60;;;;;32.84;98688.20;;;;110546;1252;41145;-68
2022/03/12 11:00:11;;;;;;;7.70;2.90;;;;;32.86;98680.80;;;;110940;1247;41144;-67
2022/03/12 11:02:58;;;;;;;8.30;3.50;;;;;32.64;98677.60;;;;110763;1249;41143;-67
2022/03/12 11:05:43;;;;;;;4.90;2.30;;;;;33.20;98681.00;;;;110744;1250;41720;-67
2022/03/12 11:08:35;;;;;;;7.70;2.40;;;;;33.68;98679.60;;;;110819;1249;41336;-65
2022/03/12 11:11:22;;;;;;;5.90;2.30;;;;;33.90;98669.80;;;;110679;1253;41253;-66
2022/03/12 11:14:06;;;;;;;5.90;2.30;;;;;34.00;98671.40;;;;110669;1250;42490;-66
2022/03/12 11:17:01;;;;;;;6.40;2.30;;;;;34.16;98658.80;;;;110919;1247;41255;-67
2022/03/12 11:19:48;;;;;;;6.60;2.50;;;;;31.30;98660.40;;;;110797;1249;41145;-67
2022/03/12 11:22:29;;;;;;;6.70;2.40;;;;;31.12;98658.20;;;;110730;1251;41144;-67
2022/03/12 11:25:11;;;;;;;6.40;2.40;;;;;31.20;98658.80;;;;110966;1247;41196;-65
2022/03/12 11:27:50;;;;;;;7.70;3.20;;;;;31.80;98657.00;;;;110850;1251;41264;-67
2022/03/12 11:30:32;;;;;;;6.90;2.90;;;;;32.30;98651.00;;;;110851;1248;41893;-67
2022/03/12 11:33:08;;;;;;;7.70;3.30;;;;;32.22;98652.20;;;;111007;1248;41609;-67
2022/03/12 11:35:50;;;;;;;7.20;2.60;;;;;32.40;98641.60;;;;110933;1248;41724;-66
2022/03/12 11:38:27;;;;;;;8.30;2.90;;;;;32.62;98635.40;;;;110864;1248;41198;-68
2022/03/12 11:41:25;;;;;;;6.30;2.50;;;;;33.34;98637.80;;;;110990;1250;41306;-66
2022/03/12 11:44:12;;;;;;;8.20;2.90;;;;;33.80;98633.40;;;;111026;1250;41979;-69
2022/03/12 11:46:52;;;;;;;7.00;2.80;;;;;32.96;98633.20;;;;110779;1248;41929;-65
2022/03/12 11:49:37;;;;;;;7.20;2.60;;;;;31.42;98633.80;;;;110876;1248;41842;-69
2022/03/12 11:52:16;;;;;;;6.80;2.40;;;;;30.02;98634.40;;;;110857;1248;41163;-68
2022/03/12 11:54:57;;;;;;;7.00;2.90;;;;;26.88;98637.20;;;;110922;1248;41385;-67
2022/03/12 11:57:45;;;;;;;7.40;3.00;;;;;24.50;98640.20;;;;110880;1248;41264;-66
2022/03/12 12:00:33;;;;;;;8.60;3.20;;;;;24.18;98642.40;;;;110981;1248;41740;-66
2022/03/12 12:03:10;;;;;;;7.10;2.90;;;;;23.74;98637.20;;;;110913;1248;41199;-66
2022/03/12 12:05:56;;;;;;;8.30;3.30;;;;;24.52;98628.80;;;;110682;1248;41246;-66
2022/03/12 12:08:37;;;;;;;8.50;3.30;;;;;24.78;98634.00;;;;110856;1248;41468;-66
2022/03/12 12:11:13;;;;;;;8.10;3.30;;;;;25.54;98621.40;;;;110999;1248;41163;-67
2022/03/12 12:13:59;;;;;;;7.60;2.80;;;;;26.56;98620.80;;;;110890;1250;41146;-66
2022/03/12 12:16:36;;;;;;;6.80;2.60;;;;;26.62;98622.40;;;;110770;1250;41316;-69
2022/03/12 12:19:23;;;;;;;6.50;2.60;;;;;27.36;98625.80;;;;110955;1250;41261;-70
2022/03/12 12:22:00;;;;;;;6.20;2.50;;;;;27.64;98629.20;;;;111058;1250;41291;-69
2022/03/12 12:24:39;;;;;;;6.30;2.50;;;;;28.24;98625.00;;;;110874;1250;41877;-69
2022/03/12 12:27:16;;;;;;;4.90;2.10;;;;;28.40;98624.20;;;;111082;1248;41198;-69
2022/03/12 12:29:58;;;;;;;6.90;2.40;;;;;28.70;98616.20;;;;110957;1247;41202;-69
2022/03/12 12:32:49;;;;;;;5.40;2.40;;;;;28.28;98622.60;;;;110789;1250;41469;-66
2022/03/12 12:35:29;;;;;;;12.00;5.80;;;;;28.00;98618.00;;;;111083;1247;41598;-68
2022/03/12 12:38:15;;;;;;;9.80;4.10;;;;;28.10;98618.00;;;;110880;1250;41576;-72
2022/03/12 12:40:54;;;;;;;8.60;2.50;;;;;28.00;98621.00;;;;110935;1250;42166;-68
2022/03/12 12:43:47;;;;;;;6.40;2.70;;;;;27.82;98616.20;;;;111069;1248;41744;-66
2022/03/12 12:46:28;;;;;;;5.30;2.00;;;;;26.42;98609.20;;;;110893;1250;41724;-68
2022/03/12 12:49:12;;;;;;;;;;;;;25.26;98607.20;;;;111015;1248;41143;-69
2022/03/12 12:51:53;;;;;;;5.40;2.20;;;;;24.54;98604.20;;;;111023;1250;41195;-67
2022/03/12 12:55:01;;;;;;;9.10;3.20;;;;;23.92;98606.40;;;;110974;1248;40856;-71
2022/03/12 12:57:47;;;;;;;7.80;2.80;;;;;23.40;98600.20;;;;111018;1248;42547;-69
2022/03/12 13:00:24;;;;;;;7.00;2.80;;;;;21.34;98602.80;;;;110969;1248;41355;-66
2022/03/12 13:03:05;;;;;;;9.30;3.10;;;;;19.70;98599.40;;;;110958;1247;41767;-66
2022/03/12 13:05:56;;;;;;;9.20;3.20;;;;;18.72;98600.60;;;;111163;1250;41238;-68
2022/03/12 13:08:52;;;;;;;9.90;3.90;;;;;19.00;98596.80;;;;110972;1247;41141;-67
2022/03/12 13:11:35;;;;;;;8.50;3.10;;;;;19.12;98585.00;;;;111235;1247;41261;-69
2022/03/12 13:14:18;;;;;;;7.40;3.00;;;;;18.42;98592.60;;;;110973;1250;41130;-69
2022/03/12 13:17:04;;;;;;;6.60;2.50;;;;;18.14;98596.40;;;;110829;1250;41155;-69
2022/03/12 13:19:46;;;;;;;9.10;3.00;;;;;17.94;98595.60;;;;110852;1250;41339;-71
2022/03/12 13:22:58;;;;;;;7.10;2.50;;;;;17.96;98594.60;;;;110828;1250;41616;-66
2022/03/12 13:25:59;;;;;;;7.30;2.70;;;;;18.00;98597.80;;;;110943;1250;41612;-69
2022/03/12 13:28:43;;;;;;;8.80;2.70;;;;;17.80;98601.40;;;;111079;1250;41140;-68
2022/03/12 13:31:28;;;;;;;7.60;2.80;;;;;17.42;98594.40;;;;110931;1250;41207;-72
2022/03/12 13:34:15;;;;;;;6.10;2.80;;;;;16.82;98596.40;;;;111092;1250;41436;-67
2022/03/12 13:36:59;;;;;;;7.30;2.90;;;;;16.28;98592.00;;;;110843;1249;42429;-69
2022/03/12 13:39:36;;;;;;;8.30;3.10;;;;;15.52;98592.20;;;;111029;1247;41147;-66
2022/03/12 13:42:19;;;;;;;10.50;2.90;;;;;15.02;98593.80;;;;111046;1248;41151;-67
2022/03/12 13:45:01;;;;;;;7.50;2.90;;;;;14.58;98591.80;;;;110848;1250;42548;-68
2022/03/12 13:47:52;;;;;;;9.60;3.40;;;;;13.38;98594.00;;;;110936;1250;41930;-67
2022/03/12 13:50:32;;;;;;;14.20;5.50;;;;;12.32;98587.80;;;;110987;1248;41277;-66
2022/03/12 13:53:08;;;;;;;8.20;3.00;;;;;11.98;98588.40;;;;111076;1248;41361;-66
2022/03/12 13:55:47;;;;;;;7.00;2.70;;;;;11.22;98591.00;;;;110855;1249;41185;-66
2022/03/12 13:58:25;;;;;;;11.00;2.90;;;;;11.30;98586.80;;;;110759;1250;42385;-66
2022/03/12 14:01:05;;;;;;;6.70;2.70;;;;;11.60;98585.20;;;;111089;1248;41364;-66
2022/03/12 14:03:49;;;;;;;9.40;3.00;;;;;11.92;98580.00;;;;111041;1247;42410;-67
2022/03/12 14:06:47;;;;;;;7.50;2.90;;;;;12.40;98576.40;;;;111029;1248;41305;-67
2022/03/12 14:09:35;;;;;;;9.10;3.20;;;;;12.90;98563.20;;;;111004;1248;41491;-67
2022/03/12 14:12:18;;;;;;;7.30;3.00;;;;;13.10;98564.80;;;;110893;1250;41975;-67
2022/03/12 14:15:01;;;;;;;9.20;3.60;;;;;13.30;98557.80;;;;110941;1248;41778;-67
2022/03/12 14:17:40;;;;;;;12.30;3.50;;;;;13.18;98557.20;;;;111036;1248;41725;-67
2022/03/12 14:20:20;;;;;;;9.20;3.20;;;;;12.90;98551.40;;;;111049;1248;41382;-66
2022/03/12 14:23:15;;;;;;;7.50;2.90;;;;;12.90;98557.80;;;;110792;1250;42054;-68
2022/03/12 14:26:01;;;;;;;7.50;3.20;;;;;12.80;98556.20;;;;111056;1247;41143;-66
2022/03/12 14:28:41;;;;;;;9.80;3.40;;;;;12.68;98550.60;;;;110697;1250;41261;-67
2022/03/12 14:31:24;;;;;;;8.90;3.70;;;;;12.18;98552.60;;;;110959;1248;41151;-66
2022/03/12 14:34:01;;;;;;;9.80;3.00;;;;;11.90;98557.00;;;;110863;1248;41378;-65
2022/03/12 14:36:47;;;;;;;9.00;3.00;;;;;11.82;98559.20;;;;110780;1248;41604;-66
2022/03/12 14:39:34;;;;;;;8.30;3.00;;;;;11.70;98554.60;;;;110873;1249;42854;-67
2022/03/12 14:42:14;;;;;;;11.10;3.00;;;;;11.56;98552.60;;;;111069;1250;41137;-67
2022/03/12 14:44:52;;;;;;;8.70;3.30;;;;;11.28;98552.40;;;;110872;1248;41192;-68
2022/03/12 14:47:36;;;;;;;8.70;3.50;;;;;10.56;98552.40;;;;110985;1250;41426;-69
2022/03/12 14:50:13;;;;;;;8.60;2.70;;;;;10.16;98555.40;;;;110904;1247;41135;-66
2022/03/12 14:52:56;;;;;;;7.70;3.20;;;;;9.90;98553.80;;;;110962;1249;42362;-67
2022/03/12 14:55:45;;;;;;;9.20;3.30;;;;;9.80;98552.80;;;;110774;1248;41251;-66
2022/03/12 14:58:24;;;;;;;7.50;2.80;;;;;9.52;98552.40;;;;111016;1247;41558;-66
2022/03/12 15:01:06;;;;;;;7.90;2.90;;;;;9.40;98561.00;;;;110688;1250;41528;-66
2022/03/12 15:03:52;;;;;;;;;;;;;9.40;98550.60;;;;110853;1250;41155;-66
2022/03/12 15:06:36;;;;;;;8.70;3.10;;;;;9.20;98554.60;;;;110885;1248;41383;-65
2022/03/12 15:09:12;;;;;;;7.80;3.00;;;;;9.00;98547.20;;;;111054;1248;41144;-68
2022/03/12 15:12:18;;;;;;;9.50;3.30;;;;;8.90;98548.00;;;;110825;1247;41191;-65
2022/03/12 15:15:06;;;;;;;8.50;3.50;;;;;8.70;98548.20;;;;111019;1248;41256;-66
2022/03/12 15:17:47;;;;;;;8.40;3.40;;;;;8.50;98547.20;;;;110900;1250;41252;-66
2022/03/12 15:20:37;;;;;;;10.30;3.60;;;;;8.30;98541.20;;;;110741;1248;41150;-67
2022/03/12 15:23:25;;;;;;;8.90;3.30;;;;;8.14;98538.00;;;;110852;1249;41255;-67
2022/03/12 15:26:09;;;;;;;9.10;3.30;;;;;8.10;98542.00;;;;110928;1250;41255;-65
2022/03/12 15:28:53;;;;;;;11.60;3.90;;;;;8.00;98533.20;;;;110871;1249;42464;-66
2022/03/12 15:31:38;;;;;;;10.40;4.00;;;;;7.90;98528.00;;;;110742;1249;41647;-66
2022/03/12 15:34:23;;;;;;;10.20;3.90;;;;;7.70;98527.60;;;;110827;1250;41397;-68
2022/03/12 15:37:07;;;;;;;8.10;3.30;;;;;7.42;98519.20;;;;110754;1249;40714;-66
2022/03/12 15:39:46;;;;;;;9.10;3.40;;;;;7.30;98521.00;;;;110655;1251;41186;-66
2022/03/12 15:42:38;;;;;;;8.90;3.80;;;;;7.20;98520.00;;;;110703;1250;41623;-66
2022/03/12 15:45:22;;;;;;;10.30;4.00;;;;;7.10;98525.00;;;;110937;1249;41257;-66
2022/03/12 15:48:06;;;;;;;11.20;5.10;;;;;7.10;98527.20;;;;110749;1250;41133;-65
2022/03/12 15:50:51;;;;;;;11.70;4.60;;;;;7.00;98524.60;;;;110743;1249;41322;-65
2022/03/12 15:53:28;;;;;;;10.50;4.50;;;;;7.00;98527.60;;;;110773;1250;41277;-66
2022/03/12 15:56:11;;;;;;;9.60;3.70;;;;;6.80;98529.20;;;;110905;1249;41169;-65
2022/03/12 15:58:56;;;;;;;8.40;3.70;;;;;6.70;98526.20;;;;110754;1250;41412;-66
2022/03/12 16:01:36;;;;;;;9.50;3.60;;;;;6.50;98525.00;;;;110739;1249;42676;-65
2022/03/12 16:04:15;;;;;;;12.10;4.70;;;;;6.40;98525.20;;;;110786;1249;41954;-65
2022/03/12 16:07:01;;;;;;;9.10;3.60;;;;;6.38;98522.20;;;;110856;1249;41173;-63
2022/03/12 16:09:38;;;;;;;10.90;4.00;;;;;6.20;98524.00;;;;110815;1249;41926;-66
2022/03/12 16:12:15;;;;;;;11.50;3.90;;;;;6.00;98528.20;;;;110857;1250;41199;-65
2022/03/12 16:14:58;;;;;;;10.00;3.90;;;;;5.90;98527.60;;;;110662;1250;41344;-66
2022/03/12 16:17:59;;;;;;;9.40;3.80;;;;;5.78;98524.60;;;;110633;1250;41158;-65
2022/03/12 16:20:42;;;;;;;8.20;3.70;;;;;5.50;98525.80;;;;110811;1249;41204;-65
2022/03/12 16:23:30;;;;;;;11.10;3.80;;;;;5.40;98523.20;;;;110722;1249;41389;-64
2022/03/12 16:26:06;;;;;;;14.40;5.80;;;;;5.30;98528.40;;;;110810;1249;41660;-65
2022/03/12 16:28:45;;;;;;;14.00;6.00;;;;;5.20;98533.60;;;;110868;1249;41147;-63
2022/03/12 16:31:21;;;;;;;14.20;6.00;;;;;5.10;98527.40;;;;110628;1250;41893;-68
2022/03/12 16:34:04;;;;;;;;;;;;;5.00;98530.00;;;;110722;1251;42075;-67
2022/03/12 16:36:44;;;;;;;11.60;5.30;;;;;4.82;98522.40;;;;110755;1250;41567;-65
2022/03/12 16:39:23;;;;;;;13.00;4.60;;;;;4.70;98529.60;;;;110767;1248;41724;-66
2022/03/12 16:41:58;;;;;;;11.20;3.90;;;;;4.60;98527.40;;;;111119;1248;41364;-64
2022/03/12 16:44:43;;;;;;;11.30;3.70;;;;;4.50;98528.60;;;;111127;1247;41262;-66
2022/03/12 16:47:28;;;;;;;10.70;3.80;;;;;4.40;98534.80;;;;110914;1249;41151;-67
2022/03/12 16:50:15;;;;;;;9.70;3.80;;;;;4.30;98535.00;;;;110695;1248;41145;-68
2022/03/12 16:52:52;;;;;;;9.20;3.80;;;;;4.20;98539.00;;;;110872;1248;41956;-65
2022/03/12 16:55:29;;;;;;;10.80;4.00;;;;;4.10;98532.60;;;;111145;1247;41469;-66
2022/03/12 16:58:12;;;;;;;9.40;3.80;;;;;4.10;98532.00;;;;110845;1250;41261;-66
2022/03/12 17:00:51;;;;;;;11.00;3.70;;;;;4.00;98534.40;;;;110863;1248;42065;-66
2022/03/12 17:03:37;;;;;;;10.40;3.90;;;;;3.90;98538.60;;;;110967;1248;42208;-65
2022/03/12 17:06:10;;;;;;;9.30;3.50;;;;;3.80;98535.60;;;;110931;1248;41624;-65
2022/03/12 17:08:55;;;;;;;9.00;3.50;;;;;3.70;98538.00;;;;111009;1248;41827;-66
2022/03/12 17:11:30;;;;;;;9.60;3.60;;;;;3.60;98543.40;;;;111028;1248;42080;-65
2022/03/12 17:17:29;;;;;;;11.20;3.90;;;;;3.40;98543.00;;;;110925;1249;41548;-65
2022/03/12 17:20:10;;;;;;;11.90;4.30;;;;;3.30;98537.00;;;;110891;1247;41949;-67
2022/03/12 17:22:51;;;;;;;11.20;4.30;;;;;3.20;98542.80;;;;110874;1248;41404;-65
2022/03/12 17:25:31;;;;;;;8.60;3.60;;;;;3.10;98536.40;;;;111008;1247;41172;-65
2022/03/12 17:28:06;;;;;;;9.10;4.00;;;;;3.00;98538.20;;;;110875;1249;41152;-67
2022/03/12 17:30:45;;;;;;;9.70;3.80;;;;;2.90;98537.60;;;;110792;1250;41151;-67
2022/03/12 17:33:23;;;;;;;10.20;4.40;;;;;2.80;98544.00;;;;110805;1250;42394;-66
2022/03/12 17:36:00;;;;;;;14.90;6.10;;;;;2.70;98542.40;;;;111092;1247;41569;-65
2022/03/12 17:38:39;;;;;;;25.60;9.50;;;;;2.60;98542.60;;;;110776;1248;41854;-65
2022/03/12 17:41:18;;;;;;;22.30;9.10;;;;;2.56;98539.20;;;;110835;1248;41155;-65
2022/03/12 17:43:57;;;;;;;38.70;14.40;;;;;2.50;98539.40;;;;110906;1248;41134;-65
2022/03/12 17:46:45;;;;;;;33.40;15.30;;;;;2.40;98541.00;;;;110947;1249;41558;-65
2022/03/12 17:49:26;;;;;;;36.20;14.80;;;;;2.40;98533.80;;;;111019;1248;41708;-65
2022/03/12 17:52:08;;;;;;;49.00;18.20;;;;;2.30;98536.60;;;;110996;1249;42693;-65
2022/03/12 17:54:47;;;;;;;38.60;16.30;;;;;2.30;98539.80;;;;110937;1247;41167;-65
2022/03/12 17:57:31;;;;;;;30.30;13.10;;;;;2.22;98540.60;;;;110939;1247;42490;-66
2022/03/12 18:00:14;;;;;;;23.30;11.00;;;;;2.20;98541.00;;;;110831;1249;41156;-65
2022/03/12 18:03:03;;;;;;;39.30;16.20;;;;;2.10;98541.00;;;;110739;1247;41435;-67
2022/03/12 18:05:41;;;;;;;51.20;21.40;;;;;2.02;98544.60;;;;110839;1249;41161;-67
2022/03/12 18:08:21;;;;;;;48.70;23.00;;;;;2.00;98548.60;;;;110838;1247;42846;-66
2022/03/12 18:11:07;;;;;;;49.30;23.60;;;;;1.94;98550.80;;;;110802;1249;41179;-66
2022/03/12 18:13:51;;;;;;;55.30;25.90;;;;;1.90;98547.00;;;;110911;1247;41323;-66
2022/03/12 18:16:35;;;;;;;53.60;24.00;;;;;1.86;98543.40;;;;110894;1249;41238;-65
2022/03/12 18:19:21;;;;;;;53.50;21.80;;;;;1.80;98549.20;;;;110963;1249;41268;-66
2022/03/12 18:22:05;;;;;;;48.20;19.40;;;;;1.70;98549.20;;;;110870;1248;41155;-65
2022/03/12 18:24:48;;;;;;;43.70;18.50;;;;;1.64;98546.60;;;;110869;1248;41987;-65
2022/03/12 18:27:29;;;;;;;47.70;20.90;;;;;1.60;98547.00;;;;110931;1248;41848;-64
2022/03/12 18:30:11;;;;;;;50.90;20.60;;;;;1.56;98540.80;;;;110771;1249;41267;-63
2022/03/12 18:32:55;;;;;;;46.60;20.50;;;;;1.50;98539.80;;;;110908;1249;42045;-65
2022/03/12 18:35:35;;;;;;;42.70;19.20;;;;;1.50;98539.40;;;;110896;1249;41589;-65
2022/03/12 18:38:19;;;;;;;41.80;19.10;;;;;1.50;98539.20;;;;110867;1248;42379;-65
2022/03/12 18:41:11;;;;;;;41.70;20.90;;;;;1.40;98534.80;;;;110870;1248;41171;-67
2022/03/12 18:44:04;;;;;;;51.50;25.60;;;;;1.40;98538.20;;;;110913;1248;41266;-66
2022/03/12 18:46:48;;;;;;;57.90;25.60;;;;;1.30;98544.20;;;;110715;1249;41464;-66
2022/03/12 18:49:27;;;;;;;47.60;20.40;;;;;1.10;98544.80;;;;110860;1249;41264;-67
2022/03/12 18:52:09;;;;;;;43.30;20.50;;;;;1.10;98545.00;;;;110906;1249;41710;-66
2022/03/12 18:54:49;;;;;;;44.80;20.20;;;;;1.02;98540.00;;;;111030;1247;41596;-65
2022/03/12 18:57:26;;;;;;;62.30;26.90;;;;;1.00;98536.00;;;;111151;1248;41160;-67
2022/03/12 19:00:06;;;;;;;83.90;34.80;;;;;1.00;98536.40;;;;110948;1248;42113;-66
2022/03/12 19:02:44;;;;;;;59.80;27.70;;;;;1.00;98535.00;;;;110953;1247;41846;-67
2022/03/12 19:05:29;;;;;;;66.70;28.60;;;;;1.00;98536.60;;;;110851;1249;40946;-64
2022/03/12 19:08:06;;;;;;;;;;;;;1.00;98535.00;;;;110953;1249;41143;-67
2022/03/12 19:10:44;;;;;;;51.60;23.10;;;;;0.94;98535.60;;;;110732;1250;41939;-66
2022/03/12 19:13:24;;;;;;;32.50;14.90;;;;;0.90;98530.60;;;;110926;1249;41393;-65
2022/03/12 19:16:06;;;;;;;25.50;12.20;;;;;0.90;98535.40;;;;110785;1248;41613;-65
2022/03/12 19:18:50;;;;;;;27.40;12.90;;;;;0.90;98534.40;;;;110825;1250;41135;-67
2022/03/12 19:21:34;;;;;;;36.00;16.10;;;;;0.80;98534.40;;;;110873;1250;42083;-66
2022/03/12 19:24:15;;;;;;;32.20;13.00;;;;;0.80;98535.00;;;;110813;1248;41159;-67
2022/03/12 19:26:56;;;;;;;30.30;14.20;;;;;0.80;98534.60;;;;110850;1248;41273;-66
2022/03/12 19:29:42;;;;;;;28.50;13.10;;;;;0.80;98540.80;;;;110857;1248;41253;-65
2022/03/12 19:32:20;;;;;;;;;;;;;0.80;98539.20;;;;110306;1247;1054359;-66
2022/03/12 19:35:06;;;;;;;39.10;18.30;;;;;0.80;98538.60;;;;110831;1250;41182;-65
2022/03/12 19:37:48;;;;;;;50.60;25.50;;;;;0.70;98539.60;;;;110944;1249;41263;-66
2022/03/12 19:40:32;;;;;;;60.60;28.70;;;;;0.60;98533.00;;;;110695;1247;41163;-64
2022/03/12 19:43:15;;;;;;;73.70;34.00;;;;;0.60;98532.00;;;;110978;1249;41147;-65
2022/03/12 19:45:53;;;;;;;63.60;27.40;;;;;0.60;98529.40;;;;111015;1250;41269;-67
2022/03/12 19:48:38;;;;;;;61.50;28.90;;;;;0.60;98534.40;;;;110862;1247;41738;-66
2022/03/12 19:51:18;;;;;;;58.00;25.30;;;;;0.60;98536.60;;;;110878;1248;41701;-66
2022/03/12 19:54:03;;;;;;;37.90;19.50;;;;;0.60;98532.80;;;;110745;1247;42406;-65
2022/03/12 19:56:46;;;;;;;39.70;19.40;;;;;0.60;98531.80;;;;110983;1249;41436;-65
2022/03/12 19:59:26;;;;;;;59.70;26.20;;;;;0.60;98528.80;;;;111027;1247;42091;-65
2022/03/12 20:02:10;;;;;;;64.00;29.30;;;;;0.60;98525.60;;;;110860;1247;41267;-66
2022/03/12 20:05:04;;;;;;;59.50;25.10;;;;;0.60;98530.80;;;;110993;1247;41705;-66
2022/03/12 20:07:40;;;;;;;54.50;22.20;;;;;0.60;98525.60;;;;111028;1247;41152;-65
2022/03/12 20:10:31;;;;;;;46.20;19.30;;;;;0.60;98524.60;;;;110817;1250;41139;-65
2022/03/12 20:13:11;;;;;;;53.10;23.50;;;;;0.60;98524.20;;;;110820;1250;41153;-66
2022/03/12 20:15:53;;;;;;;69.90;34.40;;;;;0.60;98523.20;;;;111009;1247;41622;-65
2022/03/12 20:18:37;;;;;;;91.90;40.50;;;;;0.60;98522.80;;;;110751;1249;41161;-66
2022/03/12 20:21:18;;;;;;;92.00;40.10;;;;;0.60;98517.40;;;;110952;1249;41316;-66
2022/03/12 20:23:57;;;;;;;81.40;38.20;;;;;0.60;98519.40;;;;111084;1246;42070;-66
2022/03/12 20:26:37;;;;;;;81.80;36.50;;;;;0.60;98526.40;;;;111097;1247;41134;-66
2022/03/12 20:29:13;;;;;;;69.70;33.30;;;;;0.60;98522.40;;;;110835;1248;41275;-66
2022/03/12 20:32:06;;;;;;;89.70;37.10;;;;;0.60;98519.00;;;;110989;1248;41145;-65
2022/03/12 20:34:51;;;;;;;98.10;44.60;;;;;0.60;98519.20;;;;110790;1248;41254;-66
2022/03/12 20:37:35;;;;;;;95.50;45.50;;;;;0.60;98519.80;;;;111003;1248;41135;-66
2022/03/12 20:40:16;;;;;;;90.60;40.90;;;;;0.52;98523.00;;;;110935;1247;42303;-66
2022/03/12 20:42:53;;;;;;;69.90;33.70;;;;;0.50;98530.00;;;;111168;1247;40733;-68
2022/03/12 20:45:33;;;;;;;62.10;27.90;;;;;0.50;98526.00;;;;110926;1247;41263;-66
2022/03/12 20:48:18;;;;;;;60.80;27.10;;;;;0.50;98521.40;;;;110986;1249;41189;-68